Helene — V2BK5 — position and weather

sailwx.info

Track history (hours):
 
Tides and Currents Weather Stations Pressure Air Temp Water Temp Dewpoint Dewpoint Depression Visibility Wind Speed Wind Dir Waves Ship Positions

Helene

Last reported at 2015-Feb-25 14:31 UTC. Time now 2015-Feb-27 16:55 UTC.
Position N 36°06' W 005°07'.

Length 140 m; draft 8.6 m.

Type: Cargo ship. MMSI: 304846000.

Date/timePositionNaut miles runAvg speedWind from/ knotsBaromVisibWave heightAir tempDewpointWater temp
2015-Feb-25 14:31N 36°06' W 005°07'1212.8
2015-Feb-25 13:33N 36°06' W 005°22'4 3.9
2015-Feb-25 12:31N 36°09' W 005°26'0 0.0
2015-Feb-25 11:33N 36°09' W 005°26'0 0.0
2015-Feb-25 10:33N 36°09' W 005°26'0 0.0
2015-Feb-25 09:30N 36°09' W 005°26'0 0.0
2015-Feb-25 08:30N 36°09' W 005°26'0 0.0
2015-Feb-25 06:18N 36°09' W 005°26'0 0.0
2015-Feb-25 04:15N 36°08' W 005°26'0 0.0
2015-Feb-25 03:33N 36°09' W 005°26'0 0.0
2015-Feb-25 02:27N 36°09' W 005°26'0 0.0
2015-Feb-25 01:33N 36°09' W 005°26'2 1.9
2015-Feb-25 00:33N 36°08' W 005°24'1111.1
2015-Feb-24 23:33N 36°10' W 005°10'1 0.0
2015-Feb-23 17:13N 36°10' W 005°09'1 1.5
2015-Feb-23 16:28N 36°10' W 005°10'1 1.2
2015-Feb-23 15:33N 36°10' W 005°11'0 0.4
2015-Feb-23 14:30N 36°10' W 005°11'2 2.6
2015-Feb-23 13:32N 36°12' W 005°09'1 1.1
2015-Feb-23 12:27N 36°13' W 005°10'1 0.1
2015-Feb-23 01:31N 36°12' W 005°09'1 0.9
2015-Feb-23 00:27N 36°11' W 005°10'1 0.6
2015-Feb-22 23:34N 36°10' W 005°10'1 0.6
2015-Feb-22 21:33N 36°09' W 005°10'1 0.8
2015-Feb-22 20:27N 36°09' W 005°11'1 0.8
2015-Feb-22 19:34N 36°08' W 005°12'1 0.7
2015-Feb-22 18:15N 36°08' W 005°13'1 0.7
2015-Feb-22 17:24N 36°08' W 005°13'1 1.4
2015-Feb-22 16:33N 36°08' W 005°12'0 0.2
2015-Feb-22 15:30N 36°08' W 005°12'1 0.7
2015-Feb-22 14:31N 36°08' W 005°13'0 0.5
2015-Feb-22 13:33N 36°08' W 005°14'1 0.7
2015-Feb-22 12:32N 36°08' W 005°13'1 0.8
2015-Feb-22 11:33N 36°07' W 005°13'1 0.7
2015-Feb-22 10:34N 36°07' W 005°14'5 4.5
2015-Feb-22 09:27N 36°07' W 005°08'20110.6
2015-Feb-21 14:27N 37°09' W 001°09'1011.4
2015-Feb-21 13:33N 37°16' W 000°60'1211.8
2015-Feb-21 12:33N 37°24' W 000°48'1212.1
2015-Feb-21 11:33N 37°32' W 000°37'1212.0
2015-Feb-21 10:33N 37°41' W 000°27'1212.2
2015-Feb-21 09:32N 37°52' W 000°19'9110.1
2015-Feb-21 00:33N 39°22' W 000°13'6 5.2
2015-Feb-20 23:28N 39°26' W 000°19'0 0.0
2015-Feb-20 22:31N 39°26' W 000°19'0 0.0
2015-Feb-20 21:28N 39°26' W 000°19'0 0.0
2015-Feb-20 20:31N 39°26' W 000°19'0 0.0
2015-Feb-20 19:31N 39°26' W 000°19'0 0.0
2015-Feb-20 18:28N 39°26' W 000°19'0 0.0
2015-Feb-20 17:28N 39°26' W 000°19'0 0.0
2015-Feb-20 16:31N 39°26' W 000°19'0 0.0
2015-Feb-20 15:28N 39°26' W 000°19'0 0.0
2015-Feb-20 14:31N 39°26' W 000°19'0 0.0
2015-Feb-20 13:25N 39°26' W 000°19'0 0.0
2015-Feb-20 12:19N 39°26' W 000°19'0 0.0
2015-Feb-20 11:28N 39°26' W 000°19'0 0.0
2015-Feb-20 10:13N 39°26' W 000°19'0 0.0
2015-Feb-20 09:31N 39°26' W 000°19'0 0.0
2015-Feb-20 07:28N 39°26' W 000°19'0 0.0
2015-Feb-20 06:31N 39°26' W 000°19'0 0.0
2015-Feb-20 05:31N 39°26' W 000°19'0 0.0
2015-Feb-20 04:31N 39°26' W 000°19'0 0.0
2015-Feb-20 03:31N 39°26' W 000°19'0 0.0
2015-Feb-20 02:28N 39°26' W 000°19'0 0.0
2015-Feb-20 01:31N 39°26' W 000°19'0 0.0
2015-Feb-20 00:31N 39°26' W 000°19'0 0.0
2015-Feb-19 23:31N 39°26' W 000°19'0 0.0
2015-Feb-19 22:31N 39°26' W 000°19'0 0.0
2015-Feb-19 21:31N 39°26' W 000°19'0 0.0
2015-Feb-19 20:31N 39°26' W 000°19'0 0.0
2015-Feb-19 19:31N 39°26' W 000°19'0 0.0
2015-Feb-19 18:31N 39°26' W 000°19'0 0.0
2015-Feb-19 17:31N 39°26' W 000°19'0 0.0
2015-Feb-19 16:31N 39°26' W 000°19'0 0.0
2015-Feb-19 15:28N 39°26' W 000°19'0 0.0
2015-Feb-19 14:31N 39°26' W 000°19'0 0.0
2015-Feb-19 13:31N 39°26' W 000°19'0 0.0
2015-Feb-19 12:25N 39°26' W 000°19'0 0.0
2015-Feb-19 11:31N 39°26' W 000°19'0 0.0
2015-Feb-19 10:31N 39°26' W 000°19'0 0.0
2015-Feb-19 09:31N 39°26' W 000°19'0 0.0
2015-Feb-19 08:31N 39°26' W 000°19'0 0.0
2015-Feb-19 07:31N 39°26' W 000°19'0 0.0
2015-Feb-19 06:31N 39°26' W 000°19'0 0.0
2015-Feb-19 05:31N 39°26' W 000°19'0 0.0
2015-Feb-19 04:31N 39°26' W 000°19'0 0.0
2015-Feb-19 03:19N 39°26' W 000°19'0 0.5
2015-Feb-19 02:34N 39°26' W 000°18'2 1.6
2015-Feb-19 01:10N 39°24' W 000°18'0 0.0
2015-Feb-19 00:31N 39°24' W 000°18'0 0.0
2015-Feb-18 22:04N 39°24' W 000°18'0 0.0
2015-Feb-18 20:22N 39°24' W 000°18'0 0.0
2015-Feb-18 19:19N 39°24' W 000°18'0 0.1
2015-Feb-18 18:25N 39°24' W 000°18'0 0.0
2015-Feb-18 16:28N 39°24' W 000°18'0 0.0
2015-Feb-18 15:13N 39°24' W 000°18'0 0.0
2015-Feb-18 14:04N 39°24' W 000°18'0 0.0
2015-Feb-18 12:19N 39°24' W 000°18'0 0.0
2015-Feb-18 09:10N 39°24' W 000°18'0 0.0
2015-Feb-18 08:25N 39°24' W 000°18'0 0.0
2015-Feb-18 07:16N 39°24' W 000°18'0 0.0
2015-Feb-18 05:04N 39°24' W 000°18'0 0.0
2015-Feb-18 04:19N 39°24' W 000°18'0 0.0
2015-Feb-18 03:28N 39°24' W 000°18'0 0.0
2015-Feb-18 02:31N 39°24' W 000°18'0 0.0
2015-Feb-18 01:22N 39°24' W 000°18'0 0.0
2015-Feb-17 23:22N 39°24' W 000°18'0 0.0
2015-Feb-17 22:31N 39°24' W 000°18'0 0.0
2015-Feb-17 21:22N 39°24' W 000°18'0 0.0
2015-Feb-17 20:19N 39°24' W 000°18'0 0.1
2015-Feb-17 19:22N 39°24' W 000°18'  
Track history (hours):
 
Tides and Currents Weather Stations Pressure Air Temp Water Temp Dewpoint Dewpoint Depression Visibility Wind Speed Wind Dir Waves Ship Positions

Helene

Last reported at 2015-Feb-25 14:31 UTC. Time now 2015-Feb-27 16:55 UTC.
Position N 36°06' W 005°07'.

Length 140 m; draft 8.6 m.

Type: Cargo ship. MMSI: 304846000.

Date/timePositionNaut miles runAvg speedWind from/ knotsBaromVisibWave heightAir tempDewpointWater temp
2015-Feb-25 14:31N 36°06' W 005°07'1212.8
2015-Feb-25 13:33N 36°06' W 005°22'4 3.9
2015-Feb-25 12:31N 36°09' W 005°26'0 0.0
2015-Feb-25 11:33N 36°09' W 005°26'0 0.0
2015-Feb-25 10:33N 36°09' W 005°26'0 0.0
2015-Feb-25 09:30N 36°09' W 005°26'0 0.0
2015-Feb-25 08:30N 36°09' W 005°26'0 0.0
2015-Feb-25 06:18N 36°09' W 005°26'0 0.0
2015-Feb-25 04:15N 36°08' W 005°26'0 0.0
2015-Feb-25 03:33N 36°09' W 005°26'0 0.0
2015-Feb-25 02:27N 36°09' W 005°26'0 0.0
2015-Feb-25 01:33N 36°09' W 005°26'2 1.9
2015-Feb-25 00:33N 36°08' W 005°24'1111.1
2015-Feb-24 23:33N 36°10' W 005°10'1 0.0
2015-Feb-23 17:13N 36°10' W 005°09'1 1.5
2015-Feb-23 16:28N 36°10' W 005°10'1 1.2
2015-Feb-23 15:33N 36°10' W 005°11'0 0.4
2015-Feb-23 14:30N 36°10' W 005°11'2 2.6
2015-Feb-23 13:32N 36°12' W 005°09'1 1.1
2015-Feb-23 12:27N 36°13' W 005°10'1 0.1
2015-Feb-23 01:31N 36°12' W 005°09'1 0.9
2015-Feb-23 00:27N 36°11' W 005°10'1 0.6
2015-Feb-22 23:34N 36°10' W 005°10'1 0.6
2015-Feb-22 21:33N 36°09' W 005°10'1 0.8
2015-Feb-22 20:27N 36°09' W 005°11'1 0.8
2015-Feb-22 19:34N 36°08' W 005°12'1 0.7
2015-Feb-22 18:15N 36°08' W 005°13'1 0.7
2015-Feb-22 17:24N 36°08' W 005°13'1 1.4
2015-Feb-22 16:33N 36°08' W 005°12'0 0.2
2015-Feb-22 15:30N 36°08' W 005°12'1 0.7
2015-Feb-22 14:31N 36°08' W 005°13'0 0.5
2015-Feb-22 13:33N 36°08' W 005°14'1 0.7
2015-Feb-22 12:32N 36°08' W 005°13'1 0.8
2015-Feb-22 11:33N 36°07' W 005°13'1 0.7
2015-Feb-22 10:34N 36°07' W 005°14'5 4.5
2015-Feb-22 09:27N 36°07' W 005°08'20110.6
2015-Feb-21 14:27N 37°09' W 001°09'1011.4
2015-Feb-21 13:33N 37°16' W 000°60'1211.8
2015-Feb-21 12:33N 37°24' W 000°48'1212.1
2015-Feb-21 11:33N 37°32' W 000°37'1212.0
2015-Feb-21 10:33N 37°41' W 000°27'1212.2
2015-Feb-21 09:32N 37°52' W 000°19'9110.1
2015-Feb-21 00:33N 39°22' W 000°13'6 5.2
2015-Feb-20 23:28N 39°26' W 000°19'0 0.0
2015-Feb-20 22:31N 39°26' W 000°19'0 0.0
2015-Feb-20 21:28N 39°26' W 000°19'0 0.0
2015-Feb-20 20:31N 39°26' W 000°19'0 0.0
2015-Feb-20 19:31N 39°26' W 000°19'0 0.0
2015-Feb-20 18:28N 39°26' W 000°19'0 0.0
2015-Feb-20 17:28N 39°26' W 000°19'0 0.0
2015-Feb-20 16:31N 39°26' W 000°19'0 0.0
2015-Feb-20 15:28N 39°26' W 000°19'0 0.0
2015-Feb-20 14:31N 39°26' W 000°19'0 0.0
2015-Feb-20 13:25N 39°26' W 000°19'0 0.0
2015-Feb-20 12:19N 39°26' W 000°19'0 0.0
2015-Feb-20 11:28N 39°26' W 000°19'0 0.0
2015-Feb-20 10:13N 39°26' W 000°19'0 0.0
2015-Feb-20 09:31N 39°26' W 000°19'0 0.0
2015-Feb-20 07:28N 39°26' W 000°19'0 0.0
2015-Feb-20 06:31N 39°26' W 000°19'0 0.0
2015-Feb-20 05:31N 39°26' W 000°19'0 0.0
2015-Feb-20 04:31N 39°26' W 000°19'0 0.0
2015-Feb-20 03:31N 39°26' W 000°19'0 0.0
2015-Feb-20 02:28N 39°26' W 000°19'0 0.0
2015-Feb-20 01:31N 39°26' W 000°19'0 0.0
2015-Feb-20 00:31N 39°26' W 000°19'0 0.0
2015-Feb-19 23:31N 39°26' W 000°19'0 0.0
2015-Feb-19 22:31N 39°26' W 000°19'0 0.0
2015-Feb-19 21:31N 39°26' W 000°19'0 0.0
2015-Feb-19 20:31N 39°26' W 000°19'0 0.0
2015-Feb-19 19:31N 39°26' W 000°19'0 0.0
2015-Feb-19 18:31N 39°26' W 000°19'0 0.0
2015-Feb-19 17:31N 39°26' W 000°19'0 0.0
2015-Feb-19 16:31N 39°26' W 000°19'0 0.0
2015-Feb-19 15:28N 39°26' W 000°19'0 0.0
2015-Feb-19 14:31N 39°26' W 000°19'0 0.0
2015-Feb-19 13:31N 39°26' W 000°19'0 0.0
2015-Feb-19 12:25N 39°26' W 000°19'0 0.0
2015-Feb-19 11:31N 39°26' W 000°19'0 0.0
2015-Feb-19 10:31N 39°26' W 000°19'0 0.0
2015-Feb-19 09:31N 39°26' W 000°19'0 0.0
2015-Feb-19 08:31N 39°26' W 000°19'0 0.0
2015-Feb-19 07:31N 39°26' W 000°19'0 0.0
2015-Feb-19 06:31N 39°26' W 000°19'0 0.0
2015-Feb-19 05:31N 39°26' W 000°19'0 0.0
2015-Feb-19 04:31N 39°26' W 000°19'0 0.0
2015-Feb-19 03:19N 39°26' W 000°19'0 0.5
2015-Feb-19 02:34N 39°26' W 000°18'2 1.6
2015-Feb-19 01:10N 39°24' W 000°18'0 0.0
2015-Feb-19 00:31N 39°24' W 000°18'0 0.0
2015-Feb-18 22:04N 39°24' W 000°18'0 0.0
2015-Feb-18 20:22N 39°24' W 000°18'0 0.0
2015-Feb-18 19:19N 39°24' W 000°18'0 0.1
2015-Feb-18 18:25N 39°24' W 000°18'0 0.0
2015-Feb-18 16:28N 39°24' W 000°18'0 0.0
2015-Feb-18 15:13N 39°24' W 000°18'0 0.0
2015-Feb-18 14:04N 39°24' W 000°18'0 0.0
2015-Feb-18 12:19N 39°24' W 000°18'0 0.0
2015-Feb-18 09:10N 39°24' W 000°18'0 0.0
2015-Feb-18 08:25N 39°24' W 000°18'0 0.0
2015-Feb-18 07:16N 39°24' W 000°18'0 0.0
2015-Feb-18 05:04N 39°24' W 000°18'0 0.0
2015-Feb-18 04:19N 39°24' W 000°18'0 0.0
2015-Feb-18 03:28N 39°24' W 000°18'0 0.0
2015-Feb-18 02:31N 39°24' W 000°18'0 0.0
2015-Feb-18 01:22N 39°24' W 000°18'0 0.0
2015-Feb-17 23:22N 39°24' W 000°18'0 0.0
2015-Feb-17 22:31N 39°24' W 000°18'0 0.0
2015-Feb-17 21:22N 39°24' W 000°18'0 0.0
2015-Feb-17 20:19N 39°24' W 000°18'0 0.1
2015-Feb-17 19:22N 39°24' W 000°18'  

Dump ship's entire track history